Time;durP1;ratioP1;P1;durP2;ratioP2;P2;SDS_P1;SDS_P2;PMS_P1;PMS_P2;Temp;Humidity;BMP_temperature;BMP_pressure;BME280_temperature;BME280_humidity;BME280_pressure;Samples;Min_cycle;Max_cycle;Signal;HPM_P1;HPM_P2
2022/10/29 00:00:37;;;;;;;17.38;8.88;;;;;;;;;;4878890;29;20072;-64
2022/10/29 00:03:04;;;;;;;23.05;9.27;;;;;;;;;;4878168;29;20056;-63
2022/10/29 00:05:31;;;;;;;25.98;9.80;;;;;;;;;;4879101;29;20068;-63
2022/10/29 00:07:57;;;;;;;20.45;9.07;;;;;;;;;;4878760;29;20045;-64
2022/10/29 00:10:24;;;;;;;19.50;8.93;;;;;;;;;;4877420;29;20049;-64
2022/10/29 00:12:50;;;;;;;28.92;9.57;;;;;;;;;;4878308;29;20049;-64
2022/10/29 00:15:17;;;;;;;17.30;8.57;;;;;;;;;;4877480;29;20048;-64
2022/10/29 00:17:43;;;;;;;16.05;8.00;;;;;;;;;;4877349;29;20530;-64
2022/10/29 00:20:10;;;;;;;20.88;8.73;;;;;;;;;;4878530;29;20459;-64
2022/10/29 00:22:36;;;;;;;17.63;7.75;;;;;;;;;;4876978;29;20105;-64
2022/10/29 00:25:03;;;;;;;15.75;7.53;;;;;;;;;;4878300;29;20045;-64
2022/10/29 00:27:29;;;;;;;14.57;7.65;;;;;;;;;;4877266;29;20049;-64
2022/10/29 00:29:55;;;;;;;11.27;7.60;;;;;;;;;;4877025;29;20502;-64
2022/10/29 00:32:22;;;;;;;15.32;7.30;;;;;;;;;;4876441;29;20101;-65
2022/10/29 00:34:48;;;;;;;24.08;9.55;;;;;;;;;;4878342;29;20087;-64
2022/10/29 00:37:14;;;;;;;15.30;9.05;;;;;;;;;;4878434;29;20105;-63
2022/10/29 00:39:41;;;;;;;17.67;9.43;;;;;;;;;;4878411;29;20041;-63
2022/10/29 00:42:12;;;;;;;18.42;9.20;;;;;;;;;;4877106;29;20101;-63
2022/10/29 00:44:39;;;;;;;16.08;8.55;;;;;;;;;;4877095;29;20053;-64
2022/10/29 00:47:24;;;;;;;18.40;8.65;;;;;;;;;;4878193;29;20455;-64
2022/10/29 00:49:53;;;;;;;24.90;9.25;;;;;;;;;;4878213;29;20053;-64
2022/10/29 00:52:21;;;;;;;17.45;10.18;;;;;;;;;;4876276;29;20045;-63
2022/10/29 00:54:48;;;;;;;18.23;9.95;;;;;;;;;;4878288;29;20041;-63
2022/10/29 00:57:19;;;;;;;16.42;9.18;;;;;;;;;;4877128;29;20097;-64
2022/10/29 00:59:46;;;;;;;19.42;9.40;;;;;;;;;;4878168;29;20101;-63
2022/10/29 01:02:13;;;;;;;12.38;7.57;;;;;;;;;;4877316;29;20109;-63
2022/10/29 01:04:40;;;;;;;14.82;8.18;;;;;;;;;;4877056;29;20435;-64
2022/10/29 01:07:07;;;;;;;17.35;7.53;;;;;;;;;;4877004;29;20049;-63
2022/10/29 01:09:33;;;;;;;21.70;7.72;;;;;;;;;;4861446;29;20048;-63
2022/10/29 01:12:09;;;;;;;15.82;8.05;;;;;;;;;;4877376;29;20459;-64
2022/10/29 01:14:42;;;;;;;17.40;8.45;;;;;;;;;;4877999;29;20521;-63
2022/10/29 01:17:27;;;;;;;18.23;8.55;;;;;;;;;;4877563;29;20089;-62
2022/10/29 01:20:06;;;;;;;17.20;8.30;;;;;;;;;;4877674;29;20049;-62
2022/10/29 01:22:51;;;;;;;16.50;8.70;;;;;;;;;;4877238;29;20053;-63
2022/10/29 01:25:36;;;;;;;13.60;7.82;;;;;;;;;;4877541;29;20667;-63
2022/10/29 01:28:22;;;;;;;15.02;7.30;;;;;;;;;;4877242;29;20049;-62
2022/10/29 01:30:54;;;;;;;17.35;8.15;;;;;;;;;;4877552;29;20055;-62
2022/10/29 01:33:27;;;;;;;13.82;7.35;;;;;;;;;;4877163;29;20037;-62
2022/10/29 01:35:54;;;;;;;15.40;7.33;;;;;;;;;;4877325;29;20037;-62
2022/10/29 01:38:24;;;;;;;19.85;8.07;;;;;;;;;;4877921;29;20288;-63
2022/10/29 01:40:59;;;;;;;13.57;7.22;;;;;;;;;;4877113;29;20101;-63
2022/10/29 01:43:25;;;;;;;16.00;7.43;;;;;;;;;;4880423;29;20038;-63
2022/10/29 01:45:55;;;;;;;16.75;7.50;;;;;;;;;;4881026;29;20097;-63
2022/10/29 01:48:25;;;;;;;14.45;7.22;;;;;;;;;;4881027;29;20052;-63
2022/10/29 01:50:59;;;;;;;15.32;7.10;;;;;;;;;;4880961;29;20059;-63
2022/10/29 01:53:27;;;;;;;16.23;7.18;;;;;;;;;;4880309;29;20396;-63
2022/10/29 01:55:53;;;;;;;19.20;7.68;;;;;;;;;;4880834;29;20037;-62
2022/10/29 01:58:19;;;;;;;16.33;7.38;;;;;;;;;;4879576;29;20041;-63
2022/10/29 02:00:55;;;;;;;21.17;8.02;;;;;;;;;;4879536;29;20049;-63
2022/10/29 02:03:25;;;;;;;18.45;8.07;;;;;;;;;;4880141;29;20447;-63
2022/10/29 02:05:51;;;;;;;11.82;6.88;;;;;;;;;;4880669;29;20045;-63
2022/10/29 02:08:18;;;;;;;15.18;7.30;;;;;;;;;;4879433;29;20045;-63
2022/10/29 02:10:55;;;;;;;11.52;7.28;;;;;;;;;;4880582;29;20041;-63
2022/10/29 02:13:23;;;;;;;20.40;6.85;;;;;;;;;;4879968;29;20049;-63
2022/10/29 02:15:52;;;;;;;16.38;7.00;;;;;;;;;;4880489;29;20502;-62
2022/10/29 02:18:18;;;;;;;12.93;6.15;;;;;;;;;;4880440;29;20076;-63
2022/10/29 02:20:45;;;;;;;17.98;6.05;;;;;;;;;;4880484;29;20045;-63
2022/10/29 02:23:12;;;;;;;14.13;6.55;;;;;;;;;;4879719;29;20487;-63
2022/10/29 02:25:38;;;;;;;16.67;7.60;;;;;;;;;;4880429;29;20081;-63
2022/10/29 02:28:05;;;;;;;12.23;6.65;;;;;;;;;;4880356;29;20049;-63
2022/10/29 02:30:31;;;;;;;18.70;7.65;;;;;;;;;;4880281;29;20053;-63
2022/10/29 02:32:58;;;;;;;21.20;7.20;;;;;;;;;;4879680;29;20399;-63
2022/10/29 02:35:24;;;;;;;16.83;7.03;;;;;;;;;;4880255;29;20044;-63
2022/10/29 02:37:51;;;;;;;16.52;7.53;;;;;;;;;;4880310;29;20449;-64
2022/10/29 02:40:17;;;;;;;19.17;7.88;;;;;;;;;;4880253;29;20044;-63
2022/10/29 02:42:44;;;;;;;18.50;6.55;;;;;;;;;;4879347;29;20060;-63
2022/10/29 02:45:10;;;;;;;15.75;6.75;;;;;;;;;;4880045;29;20048;-63
2022/10/29 02:47:36;;;;;;;14.73;7.22;;;;;;;;;;4879910;29;20502;-63
2022/10/29 02:50:03;;;;;;;13.73;6.65;;;;;;;;;;4878642;29;20558;-63
2022/10/29 02:52:29;;;;;;;16.58;7.47;;;;;;;;;;4879034;29;20093;-63
2022/10/29 02:54:56;;;;;;;12.02;6.20;;;;;;;;;;4879527;29;20049;-63
2022/10/29 02:57:22;;;;;;;14.43;7.18;;;;;;;;;;4879761;29;20113;-63
2022/10/29 02:59:49;;;;;;;13.18;7.03;;;;;;;;;;4879703;29;20049;-63
2022/10/29 03:02:15;;;;;;;12.88;6.93;;;;;;;;;;4878874;29;20498;-65
2022/10/29 03:04:43;;;;;;;15.20;7.65;;;;;;;;;;4879706;29;20049;-63
2022/10/29 03:07:09;;;;;;;14.63;6.78;;;;;;;;;;4878108;29;20049;-63
2022/10/29 03:09:36;;;;;;;16.60;7.53;;;;;;;;;;4879583;29;20056;-63
2022/10/29 03:12:02;;;;;;;13.88;6.38;;;;;;;;;;4877448;29;20072;-63
2022/10/29 03:14:29;;;;;;;11.98;6.60;;;;;;;;;;4879455;29;20121;-64
2022/10/29 03:16:55;;;;;;;15.00;6.85;;;;;;;;;;4879434;29;20064;-64
2022/10/29 03:19:22;;;;;;;12.63;6.50;;;;;;;;;;4879308;29;20044;-63
2022/10/29 03:21:48;;;;;;;14.38;7.05;;;;;;;;;;4878703;29;20049;-63
2022/10/29 03:24:14;;;;;;;14.65;6.93;;;;;;;;;;4879331;29;20081;-65
2022/10/29 03:26:41;;;;;;;14.63;6.65;;;;;;;;;;4879187;29;20045;-64
2022/10/29 03:29:07;;;;;;;16.02;6.70;;;;;;;;;;4879329;29;20109;-65
2022/10/29 03:31:33;;;;;;;11.98;6.35;;;;;;;;;;4878839;29;20049;-63
2022/10/29 03:34:00;;;;;;;16.13;6.95;;;;;;;;;;4878740;29;20037;-63
2022/10/29 03:36:26;;;;;;;13.50;6.97;;;;;;;;;;4879164;29;20499;-63
2022/10/29 03:38:53;;;;;;;14.43;7.03;;;;;;;;;;4879127;29;20045;-63
2022/10/29 03:41:19;;;;;;;11.45;6.80;;;;;;;;;;4878835;29;20069;-63
2022/10/29 03:43:45;;;;;;;16.98;7.60;;;;;;;;;;4878503;29;20112;-63
2022/10/29 03:46:12;;;;;;;11.55;7.07;;;;;;;;;;4878825;29;20049;-63
2022/10/29 03:48:38;;;;;;;19.10;7.32;;;;;;;;;;4879191;29;20077;-63
2022/10/29 03:51:05;;;;;;;15.32;7.47;;;;;;;;;;4883571;29;20045;-62
2022/10/29 03:53:33;;;;;;;12.77;7.38;;;;;;;;;;4883072;29;20093;-63
2022/10/29 03:55:59;;;;;;;14.00;7.22;;;;;;;;;;4883701;29;20179;-63
2022/10/29 03:58:26;;;;;;;13.02;7.18;;;;;;;;;;4884167;29;20045;-63
2022/10/29 04:03:35;;;;;;;15.13;6.50;;;;;;;;;;4836760;29;20050;-61
2022/10/29 04:06:07;;;;;;;15.65;6.93;;;;;;;;;;4841675;29;20050;-62
2022/10/29 04:08:34;;;;;;;16.70;7.45;;;;;;;;;;4841743;29;20571;-62
2022/10/29 04:11:00;;;;;;;15.60;7.32;;;;;;;;;;4841596;29;20045;-62
2022/10/29 04:13:26;;;;;;;15.63;7.35;;;;;;;;;;4840905;29;20134;-61
2022/10/29 04:15:53;;;;;;;14.88;7.20;;;;;;;;;;4841501;29;20054;-61
2022/10/29 04:18:20;;;;;;;14.20;6.57;;;;;;;;;;4840483;29;20050;-62
2022/10/29 04:20:46;;;;;;;16.58;6.80;;;;;;;;;;4841695;29;20746;-61
2022/10/29 04:23:33;;;;;;;15.60;6.72;;;;;;;;;;4840945;29;20050;-62
2022/10/29 04:26:19;;;;;;;11.10;6.85;;;;;;;;;;4841322;29;20595;-62
2022/10/29 04:29:05;;;;;;;14.07;6.70;;;;;;;;;;4841325;29;20082;-62
2022/10/29 04:31:32;;;;;;;14.80;7.13;;;;;;;;;;4841213;29;20054;-62
2022/10/29 04:33:58;;;;;;;18.40;7.43;;;;;;;;;;4841039;29;20038;-62
2022/10/29 04:36:25;;;;;;;13.27;6.88;;;;;;;;;;4841421;29;20042;-62
2022/10/29 04:38:51;;;;;;;16.38;6.93;;;;;;;;;;4841312;29;20057;-61
2022/10/29 04:41:17;;;;;;;12.15;6.63;;;;;;;;;;4841169;29;20464;-63
2022/10/29 04:43:44;;;;;;;15.38;6.43;;;;;;;;;;4840829;29;20050;-63
2022/10/29 04:46:10;;;;;;;13.05;6.72;;;;;;;;;;4841400;29;20046;-63
2022/10/29 04:48:37;;;;;;;15.00;6.30;;;;;;;;;;4841382;29;20106;-65
2022/10/29 04:51:04;;;;;;;16.92;7.20;;;;;;;;;;4841293;29;20460;-62
2022/10/29 04:53:30;;;;;;;16.23;7.50;;;;;;;;;;4839136;29;20045;-63
2022/10/29 04:56:00;;;;;;;15.95;7.20;;;;;;;;;;4841134;29;20081;-63
2022/10/29 04:58:27;;;;;;;17.40;7.45;;;;;;;;;;4841313;29;20098;-62
2022/10/29 05:00:59;;;;;;;15.68;7.53;;;;;;;;;;4840996;29;20057;-62
2022/10/29 05:03:26;;;;;;;14.57;7.85;;;;;;;;;;4840426;29;20050;-62
2022/10/29 05:05:52;;;;;;;15.85;8.23;;;;;;;;;;4839792;29;20111;-62
2022/10/29 05:08:19;;;;;;;15.20;7.50;;;;;;;;;;4841097;29;20118;-62
2022/10/29 05:10:45;;;;;;;16.65;7.47;;;;;;;;;;4839834;29;20050;-63
2022/10/29 05:13:12;;;;;;;20.73;7.72;;;;;;;;;;4839243;29;20436;-63
2022/10/29 05:15:38;;;;;;;21.02;8.10;;;;;;;;;;4841193;29;20095;-63
2022/10/29 05:18:05;;;;;;;18.83;6.45;;;;;;;;;;4844640;29;20090;-63
2022/10/29 05:20:32;;;;;;;14.38;7.25;;;;;;;;;;4844901;29;20048;-61
2022/10/29 05:23:02;;;;;;;17.25;6.53;;;;;;;;;;4843774;29;20050;-61
2022/10/29 05:25:29;;;;;;;21.30;6.40;;;;;;;;;;4844247;29;20057;-61
2022/10/29 05:28:03;;;;;;;17.08;7.70;;;;;;;;;;4844310;29;20077;-61
2022/10/29 05:30:30;;;;;;;14.32;7.28;;;;;;;;;;4858435;29;20077;-61
2022/10/29 05:32:56;;;;;;;21.05;7.47;;;;;;;;;;4843481;29;20107;-61
2022/10/29 05:35:23;;;;;;;16.67;7.35;;;;;;;;;;4844409;29;20049;-62
2022/10/29 05:37:50;;;;;;;18.73;8.18;;;;;;;;;;4844268;29;20499;-61
2022/10/29 05:40:17;;;;;;;14.98;8.07;;;;;;;;;;4844074;29;20049;-62
2022/10/29 05:42:43;;;;;;;18.17;7.85;;;;;;;;;;4843456;29;20107;-62
2022/10/29 05:45:13;;;;;;;15.45;6.95;;;;;;;;;;4844083;29;20048;-63
2022/10/29 05:47:39;;;;;;;16.38;7.53;;;;;;;;;;4843823;29;20552;-62
2022/10/29 05:50:06;;;;;;;12.60;7.57;;;;;;;;;;4843919;29;20099;-62
2022/10/29 05:52:32;;;;;;;13.27;7.65;;;;;;;;;;4842009;29;20115;-63
2022/10/29 05:54:59;;;;;;;14.48;7.13;;;;;;;;;;4843886;29;20053;-63
2022/10/29 05:57:26;;;;;;;13.82;7.38;;;;;;;;;;4843932;29;20042;-62
2022/10/29 05:59:52;;;;;;;14.10;7.00;;;;;;;;;;4843839;29;20045;-62
2022/10/29 06:02:19;;;;;;;12.18;7.28;;;;;;;;;;4826413;29;20110;-65
2022/10/29 06:04:45;;;;;;;15.95;6.78;;;;;;;;;;4842683;29;20050;-63
2022/10/29 06:07:12;;;;;;;18.15;7.68;;;;;;;;;;4843762;29;20111;-64
2022/10/29 06:09:38;;;;;;;15.40;8.00;;;;;;;;;;4843710;29;20052;-63
2022/10/29 06:12:05;;;;;;;11.77;6.70;;;;;;;;;;4842816;29;20046;-63
2022/10/29 06:14:31;;;;;;;13.98;7.10;;;;;;;;;;4843644;29;20046;-63
2022/10/29 06:16:58;;;;;;;16.58;7.78;;;;;;;;;;4843400;29;20121;-63
2022/10/29 06:19:24;;;;;;;17.65;8.27;;;;;;;;;;4842358;29;20050;-63
2022/10/29 06:21:51;;;;;;;15.13;8.07;;;;;;;;;;4842818;29;20094;-62
2022/10/29 06:24:23;;;;;;;16.63;7.70;;;;;;;;;;4842224;29;20050;-62
2022/10/29 06:26:51;;;;;;;17.45;8.52;;;;;;;;;;4841707;29;20483;-63
2022/10/29 06:29:18;;;;;;;13.18;8.65;;;;;;;;;;4843378;29;20122;-63
2022/10/29 06:31:44;;;;;;;17.55;9.00;;;;;;;;;;4841418;29;20045;-63
2022/10/29 06:34:12;;;;;;;22.65;8.25;;;;;;;;;;4843397;29;20079;-63
2022/10/29 06:36:38;;;;;;;18.48;9.90;;;;;;;;;;4843277;29;20049;-63
2022/10/29 06:39:05;;;;;;;18.98;8.63;;;;;;;;;;4843426;29;20046;-61
2022/10/29 06:41:31;;;;;;;15.40;7.53;;;;;;;;;;4843381;29;20071;-62
2022/10/29 06:43:58;;;;;;;14.80;7.40;;;;;;;;;;4843225;29;20052;-62
2022/10/29 06:46:24;;;;;;;17.65;7.43;;;;;;;;;;4843597;29;20398;-63
2022/10/29 06:48:50;;;;;;;11.55;6.43;;;;;;;;;;4843570;29;20074;-63
2022/10/29 06:51:17;;;;;;;14.23;7.00;;;;;;;;;;4842207;29;20054;-62
2022/10/29 06:53:43;;;;;;;13.18;6.82;;;;;;;;;;4842996;29;20038;-62
2022/10/29 06:56:10;;;;;;;21.08;7.80;;;;;;;;;;4843302;29;20093;-63
2022/10/29 06:58:36;;;;;;;11.48;7.13;;;;;;;;;;4841692;29;20050;-63
2022/10/29 07:01:03;;;;;;;21.23;7.70;;;;;;;;;;4843089;29;20061;-63
2022/10/29 07:03:29;;;;;;;20.10;8.40;;;;;;;;;;4840946;29;20061;-63
2022/10/29 07:05:56;;;;;;;17.38;7.40;;;;;;;;;;4842717;29;20054;-63
2022/10/29 07:08:23;;;;;;;15.63;7.55;;;;;;;;;;4841432;29;20106;-63
2022/10/29 07:10:50;;;;;;;13.35;7.43;;;;;;;;;;4842436;29;20042;-62
2022/10/29 07:13:16;;;;;;;16.02;7.32;;;;;;;;;;4841800;29;20457;-63
2022/10/29 07:15:43;;;;;;;14.05;8.50;;;;;;;;;;4841279;29;20050;-63
2022/10/29 07:18:10;;;;;;;16.58;8.13;;;;;;;;;;4842501;29;20050;-63
2022/10/29 07:20:38;;;;;;;18.52;7.82;;;;;;;;;;4841063;29;20141;-63
2022/10/29 07:23:04;;;;;;;22.55;13.13;;;;;;;;;;4841667;29;20079;-62
2022/10/29 07:25:31;;;;;;;18.17;8.52;;;;;;;;;;4842312;29;20110;-62
2022/10/29 07:28:05;;;;;;;15.05;7.93;;;;;;;;;;4840577;29;20489;-63
2022/10/29 07:30:32;;;;;;;20.67;8.90;;;;;;;;;;4840835;29;20058;-63
2022/10/29 07:32:58;;;;;;;13.07;7.57;;;;;;;;;;4841417;29;20050;-63
2022/10/29 07:35:25;;;;;;;14.10;7.90;;;;;;;;;;4842282;29;20058;-63
2022/10/29 07:37:51;;;;;;;13.10;7.75;;;;;;;;;;4840423;29;20502;-63
2022/10/29 07:40:18;;;;;;;16.73;7.88;;;;;;;;;;4841410;29;20049;-63
2022/10/29 07:42:45;;;;;;;23.77;6.70;;;;;;;;;;4840276;29;20098;-62
2022/10/29 07:45:11;;;;;;;15.13;7.20;;;;;;;;;;4840893;29;20098;-61
2022/10/29 07:47:38;;;;;;;14.43;7.20;;;;;;;;;;4841452;29;20046;-61
2022/10/29 07:50:04;;;;;;;13.93;6.70;;;;;;;;;;4841859;29;20517;-60
2022/10/29 07:52:31;;;;;;;18.45;7.45;;;;;;;;;;4839870;29;20339;-62
2022/10/29 07:55:00;;;;;;;11.68;6.75;;;;;;;;;;4841514;29;20041;-63
2022/10/29 07:57:26;;;;;;;13.07;6.90;;;;;;;;;;4842636;29;20042;-62
2022/10/29 07:59:53;;;;;;;14.20;8.02;;;;;;;;;;4842589;29;20057;-62
2022/10/29 08:02:19;;;;;;;13.23;7.20;;;;;;;;;;4830697;29;20057;-63
2022/10/29 08:04:46;;;;;;;12.93;7.00;;;;;;;;;;4824679;29;20129;-63
2022/10/29 08:07:12;;;;;;;17.17;7.45;;;;;;;;;;4823402;29;20050;-62
2022/10/29 08:09:39;;;;;;;13.65;7.47;;;;;;;;;;4824443;29;20568;-62
2022/10/29 08:12:09;;;;;;;15.45;7.10;;;;;;;;;;4824036;29;20042;-62
2022/10/29 08:14:36;;;;;;;9.32;6.43;;;;;;;;;;4824309;29;20038;-62
2022/10/29 08:17:02;;;;;;;13.90;7.32;;;;;;;;;;4823322;29;20051;-64
2022/10/29 08:19:28;;;;;;;17.65;7.72;;;;;;;;;;4823766;29;20441;-62
2022/10/29 08:21:55;;;;;;;15.48;7.70;;;;;;;;;;4822813;29;20758;-63
2022/10/29 08:24:22;;;;;;;14.70;7.38;;;;;;;;;;4823063;29;20415;-64
2022/10/29 08:26:48;;;;;;;17.98;7.53;;;;;;;;;;4823502;29;20054;-64
2022/10/29 08:29:15;;;;;;;16.67;7.45;;;;;;;;;;4823398;29;20050;-63
2022/10/29 08:31:41;;;;;;;15.90;7.65;;;;;;;;;;4822441;29;20508;-62
2022/10/29 08:34:08;;;;;;;18.67;8.00;;;;;;;;;;4823113;29;20099;-63
2022/10/29 08:36:36;;;;;;;11.88;7.20;;;;;;;;;;4822076;29;20112;-63
2022/10/29 08:39:03;;;;;;;15.30;7.30;;;;;;;;;;4823258;29;20047;-63
2022/10/29 08:41:38;;;;;;;19.13;8.75;;;;;;;;;;4822870;29;20046;-63
2022/10/29 08:44:14;;;;;;;18.20;8.15;;;;;;;;;;4823141;29;20054;-63
2022/10/29 08:46:43;;;;;;;13.65;8.25;;;;;;;;;;4823148;29;20461;-63
2022/10/29 08:49:16;;;;;;;18.30;8.38;;;;;;;;;;4822074;29;20103;-63
2022/10/29 08:51:46;;;;;;;14.80;7.78;;;;;;;;;;4825894;29;20100;-63
2022/10/29 08:54:14;;;;;;;20.95;7.45;;;;;;;;;;4825532;29;20054;-63
2022/10/29 08:56:58;;;;;;;16.98;7.25;;;;;;;;;;4826792;29;20039;-63
2022/10/29 08:59:28;;;;;;;17.08;8.07;;;;;;;;;;4826515;29;20057;-64
2022/10/29 09:01:55;;;;;;;16.40;7.78;;;;;;;;;;4825881;29;20050;-62
2022/10/29 09:04:29;;;;;;;16.17;8.48;;;;;;;;;;4826709;29;20058;-64
2022/10/29 09:07:06;;;;;;;15.65;7.85;;;;;;;;;;4826754;29;20492;-63
2022/10/29 09:09:42;;;;;;;17.52;7.90;;;;;;;;;;4826372;29;20461;-63
2022/10/29 09:12:15;;;;;;;20.55;9.60;;;;;;;;;;4839884;29;20057;-63
2022/10/29 09:15:02;;;;;;;17.00;7.93;;;;;;;;;;4826326;29;20075;-64
2022/10/29 09:17:38;;;;;;;15.82;7.82;;;;;;;;;;4825073;29;20058;-63
2022/10/29 09:20:14;;;;;;;14.40;6.80;;;;;;;;;;4826235;29;20053;-63
2022/10/29 09:22:59;;;;;;;11.23;6.72;;;;;;;;;;4825700;29;20052;-62
2022/10/29 09:25:29;;;;;;;19.30;6.72;;;;;;;;;;4826255;29;20110;-63
2022/10/29 09:28:02;;;;;;;14.45;7.25;;;;;;;;;;4826081;29;20053;-63
2022/10/29 09:30:30;;;;;;;14.23;6.72;;;;;;;;;;4824913;29;20042;-64
2022/10/29 09:33:00;;;;;;;16.15;6.70;;;;;;;;;;4825321;29;20112;-63
2022/10/29 09:35:43;;;;;;;10.75;6.28;;;;;;;;;;4826265;29;20080;-63
2022/10/29 09:38:21;;;;;;;14.85;6.80;;;;;;;;;;4826153;29;20047;-63
2022/10/29 09:40:47;;;;;;;10.70;5.47;;;;;;;;;;4825882;29;20046;-63
2022/10/29 09:43:33;;;;;;;10.70;5.38;;;;;;;;;;4825349;29;20046;-63
2022/10/29 09:46:05;;;;;;;11.70;6.13;;;;;;;;;;4825905;29;20102;-63
2022/10/29 09:48:34;;;;;;;14.65;6.13;;;;;;;;;;4825849;29;20042;-63
2022/10/29 09:51:09;;;;;;;12.38;5.43;;;;;;;;;;4825873;29;20419;-63
2022/10/29 09:53:36;;;;;;;11.52;5.93;;;;;;;;;;4825021;29;20047;-63
2022/10/29 09:56:05;;;;;;;14.55;5.88;;;;;;;;;;4825805;29;20103;-63
2022/10/29 09:58:34;;;;;;;8.82;4.65;;;;;;;;;;4825620;29;20576;-63
2022/10/29 10:01:00;;;;;;;9.75;4.82;;;;;;;;;;4825474;29;20065;-61
2022/10/29 10:03:29;;;;;;;8.52;5.30;;;;;;;;;;4824285;29;20511;-63
2022/10/29 10:05:56;;;;;;;9.82;5.10;;;;;;;;;;4825370;29;20047;-64
2022/10/29 10:08:22;;;;;;;8.88;4.90;;;;;;;;;;4825471;29;20111;-62
2022/10/29 10:10:56;;;;;;;11.73;5.88;;;;;;;;;;4825545;29;20046;-64
2022/10/29 10:13:30;;;;;;;8.40;4.85;;;;;;;;;;4823713;29;20127;-64
2022/10/29 10:15:58;;;;;;;14.20;5.50;;;;;;;;;;4825217;29;20050;-65
2022/10/29 10:18:30;;;;;;;9.93;4.82;;;;;;;;;;4825091;29;20042;-62
2022/10/29 10:21:00;;;;;;;13.43;4.55;;;;;;;;;;4825183;29;20047;-63
2022/10/29 10:23:28;;;;;;;10.30;5.13;;;;;;;;;;4824592;29;20499;-64
2022/10/29 10:25:55;;;;;;;11.75;4.32;;;;;;;;;;4825213;29;20046;-64
2022/10/29 10:28:30;;;;;;;11.05;4.07;;;;;;;;;;4824976;29;20054;-64
2022/10/29 10:31:02;;;;;;;14.13;4.30;;;;;;;;;;4824739;29;20050;-63
2022/10/29 10:33:30;;;;;;;10.77;4.80;;;;;;;;;;4824388;29;20042;-63
2022/10/29 10:36:00;;;;;;;11.70;4.95;;;;;;;;;;4824935;29;20050;-64
2022/10/29 10:38:27;;;;;;;11.18;5.60;;;;;;;;;;4824938;29;20114;-63
2022/10/29 10:41:00;;;;;;;10.98;4.15;;;;;;;;;;4824721;29;20407;-64
2022/10/29 10:43:26;;;;;;;8.63;4.57;;;;;;;;;;4824273;29;20042;-64
2022/10/29 10:45:57;;;;;;;7.68;4.30;;;;;;;;;;4824635;29;20061;-63
2022/10/29 10:48:26;;;;;;;10.23;4.97;;;;;;;;;;4824708;29;20419;-64
2022/10/29 10:51:15;;;;;;;7.28;3.88;;;;;;;;;;4824809;29;20103;-62
2022/10/29 10:53:41;;;;;;;10.97;4.40;;;;;;;;;;4824269;29;20589;-64
2022/10/29 10:56:15;;;;;;;9.88;3.90;;;;;;;;;;4824645;29;20282;-65
2022/10/29 10:58:43;;;;;;;10.30;4.18;;;;;;;;;;4824689;29;20064;-64
2022/10/29 11:01:22;;;;;;;7.00;3.35;;;;;;;;;;4823000;29;20047;-65
2022/10/29 11:03:56;;;;;;;10.88;3.85;;;;;;;;;;4824048;29;20419;-64
2022/10/29 11:06:32;;;;;;;6.50;3.40;;;;;;;;;;4824471;29;20050;-65
2022/10/29 11:09:22;;;;;;;7.45;3.30;;;;;;;;;;4824480;29;20054;-63
2022/10/29 11:11:56;;;;;;;7.43;2.80;;;;;;;;;;4820933;29;20070;-63
2022/10/29 11:14:43;;;;;;;10.57;3.47;;;;;;;;;;4824328;29;20146;-63
2022/10/29 11:17:30;;;;;;;7.57;3.60;;;;;;;;;;4824265;29;20046;-63
2022/10/29 11:19:59;;;;;;;11.57;3.03;;;;;;;;;;4824361;29;20046;-64
2022/10/29 11:22:25;;;;;;;9.43;3.22;;;;;;;;;;4823783;29;20118;-63
2022/10/29 11:24:51;;;;;;;6.18;3.33;;;;;;;;;;4823008;29;20111;-63
2022/10/29 11:27:28;;;;;;;11.40;3.88;;;;;;;;;;4822780;29;20145;-63
2022/10/29 11:29:54;;;;;;;6.80;3.42;;;;;;;;;;4822900;29;20115;-63
2022/10/29 11:32:27;;;;;;;8.02;3.15;;;;;;;;;;4823469;29;20042;-62
2022/10/29 11:35:09;;;;;;;6.82;3.58;;;;;;;;;;4823906;29;20084;-62
2022/10/29 11:37:55;;;;;;;9.73;3.15;;;;;;;;;;4822753;29;20051;-64
2022/10/29 11:40:34;;;;;;;9.30;3.63;;;;;;;;;;4824137;29;20049;-62
2022/10/29 11:43:02;;;;;;;10.18;3.97;;;;;;;;;;4822344;29;20042;-64
2022/10/29 11:45:42;;;;;;;6.38;2.83;;;;;;;;;;4823884;29;20057;-63
2022/10/29 11:48:16;;;;;;;6.78;3.33;;;;;;;;;;4837605;29;20058;-63
2022/10/29 11:50:59;;;;;;;7.20;3.42;;;;;;;;;;4837172;29;20073;-63
2022/10/29 11:53:37;;;;;;;7.05;2.92;;;;;;;;;;4823191;29;20053;-63
2022/10/29 11:56:26;;;;;;;10.35;3.15;;;;;;;;;;4823742;29;20087;-65
2022/10/29 11:58:53;;;;;;;6.57;3.22;;;;;;;;;;4820832;29;20059;-63
2022/10/29 12:01:25;;;;;;;8.05;3.65;;;;;;;;;;4823349;29;20500;-64
2022/10/29 12:03:58;;;;;;;9.50;3.67;;;;;;;;;;4823570;29;20039;-64
2022/10/29 12:06:24;;;;;;;9.70;3.55;;;;;;;;;;4823920;29;20125;-64
2022/10/29 12:09:04;;;;;;;8.02;3.22;;;;;;;;;;4823482;29;20111;-64
2022/10/29 12:11:33;;;;;;;7.65;3.50;;;;;;;;;;4822228;29;20522;-63
2022/10/29 12:14:07;;;;;;;7.50;2.92;;;;;;;;;;4822360;29;20098;-63
2022/10/29 12:16:40;;;;;;;8.68;2.85;;;;;;;;;;4823477;29;20389;-62
2022/10/29 12:19:15;;;;;;;12.35;3.35;;;;;;;;;;4823509;29;20046;-64
2022/10/29 12:21:54;;;;;;;4.97;3.08;;;;;;;;;;4822872;29;20058;-64
2022/10/29 12:24:24;;;;;;;7.35;3.40;;;;;;;;;;4823199;29;20049;-63
2022/10/29 12:27:03;;;;;;;9.65;2.65;;;;;;;;;;4823366;29;20054;-62
2022/10/29 12:29:42;;;;;;;6.90;2.83;;;;;;;;;;4823514;29;20404;-63
2022/10/29 12:32:21;;;;;;;5.05;3.22;;;;;;;;;;4822841;29;20057;-63
2022/10/29 12:35:06;;;;;;;9.93;3.67;;;;;;;;;;4823339;29;20411;-62
2022/10/29 12:38:00;;;;;;;8.70;2.60;;;;;;;;;;4823152;29;20052;-63
2022/10/29 12:40:26;;;;;;;;;;;;;;;;;;4823520;29;20047;-62
2022/10/29 12:42:54;;;;;;;8.27;2.92;;;;;;;;;;4822793;29;20455;-63
2022/10/29 12:45:20;;;;;;;8.30;3.40;;;;;;;;;;4823184;29;20389;-62
2022/10/29 12:47:51;;;;;;;12.07;3.45;;;;;;;;;;4823240;29;20051;-62
2022/10/29 12:50:36;;;;;;;5.22;3.50;;;;;;;;;;4824234;29;20053;-63
2022/10/29 12:53:05;;;;;;;7.10;3.05;;;;;;;;;;4823942;29;20102;-63
2022/10/29 12:55:33;;;;;;;8.32;2.88;;;;;;;;;;4824085;29;20069;-63
2022/10/29 12:58:19;;;;;;;8.50;3.20;;;;;;;;;;4824774;29;20562;-62
2022/10/29 13:00:49;;;;;;;9.38;2.97;;;;;;;;;;4824425;29;20468;-63
2022/10/29 13:03:34;;;;;;;10.50;3.42;;;;;;;;;;4838359;29;20479;-63
2022/10/29 13:06:26;;;;;;;7.07;2.75;;;;;;;;;;4825210;29;20099;-63
2022/10/29 13:08:56;;;;;;;6.70;3.60;;;;;;;;;;4823901;29;20253;-63
2022/10/29 13:11:23;;;;;;;7.70;3.00;;;;;;;;;;4823198;29;20054;-63
2022/10/29 13:13:53;;;;;;;6.25;3.17;;;;;;;;;;4836158;29;20465;-62
2022/10/29 13:16:23;;;;;;;11.10;3.15;;;;;;;;;;4822840;29;20111;-62
2022/10/29 13:19:03;;;;;;;9.70;3.33;;;;;;;;;;4823089;29;20574;-63
2022/10/29 13:21:48;;;;;;;8.70;3.05;;;;;;;;;;4822418;29;20504;-62
2022/10/29 13:24:15;;;;;;;10.27;2.85;;;;;;;;;;4823255;29;20050;-63
2022/10/29 13:26:58;;;;;;;7.65;2.50;;;;;;;;;;4822816;29;20099;-62
2022/10/29 13:29:41;;;;;;;12.00;3.08;;;;;;;;;;4821737;29;20051;-62
2022/10/29 13:32:07;;;;;;;9.88;3.13;;;;;;;;;;4822169;29;20050;-62
2022/10/29 13:34:52;;;;;;;12.27;2.70;;;;;;;;;;4836753;29;20500;-62
2022/10/29 13:37:51;;;;;;;9.40;2.88;;;;;;;;;;4824081;29;20046;-62
2022/10/29 13:40:21;;;;;;;8.55;3.13;;;;;;;;;;4815130;29;20070;-62
2022/10/29 13:43:00;;;;;;;9.57;3.17;;;;;;;;;;4825210;29;20547;-63
2022/10/29 13:45:27;;;;;;;12.75;3.58;;;;;;;;;;4825853;29;20507;-61
2022/10/29 13:48:00;;;;;;;10.40;4.60;;;;;;;;;;4825989;29;20047;-63
2022/10/29 13:50:26;;;;;;;11.65;3.30;;;;;;;;;;4825900;29;20050;-61
2022/10/29 13:52:53;;;;;;;9.50;4.32;;;;;;;;;;4825100;29;20556;-62
2022/10/29 13:55:20;;;;;;;9.55;3.35;;;;;;;;;;4825610;29;20081;-65
2022/10/29 13:57:50;;;;;;;9.95;3.60;;;;;;;;;;4825450;29;20050;-65
2022/10/29 14:00:17;;;;;;;8.35;2.50;;;;;;;;;;4825560;29;20053;-65
2022/10/29 14:02:58;;;;;;;6.72;3.10;;;;;;;;;;4824627;29;20556;-64
2022/10/29 14:05:41;;;;;;;19.55;10.50;;;;;;;;;;4825890;29;20310;-64
2022/10/29 14:08:14;;;;;;;8.25;4.30;;;;;;;;;;4824140;29;20062;-64
2022/10/29 14:10:40;;;;;;;11.50;3.88;;;;;;;;;;4825400;29;20503;-64
2022/10/29 14:13:12;;;;;;;10.35;3.85;;;;;;;;;;4824778;29;20050;-64
2022/10/29 14:15:57;;;;;;;15.07;5.32;;;;;;;;;;4825293;29;20161;-64
2022/10/29 14:18:25;;;;;;;12.57;6.05;;;;;;;;;;4824225;29;20046;-64
2022/10/29 14:20:59;;;;;;;9.82;5.93;;;;;;;;;;4824052;29;20381;-64
2022/10/29 14:23:26;;;;;;;13.65;6.00;;;;;;;;;;4824685;29;20047;-64
2022/10/29 14:25:54;;;;;;;13.45;6.28;;;;;;;;;;4825186;29;20057;-65
2022/10/29 14:28:24;;;;;;;18.05;5.85;;;;;;;;;;4825028;29;20051;-64
2022/10/29 14:30:59;;;;;;;11.07;6.18;;;;;;;;;;4825019;29;20054;-64
2022/10/29 14:33:29;;;;;;;11.88;5.15;;;;;;;;;;4824648;29;20083;-64
2022/10/29 14:36:07;;;;;;;17.10;6.95;;;;;;;;;;4825038;29;20050;-64
2022/10/29 14:38:42;;;;;;;23.42;8.52;;;;;;;;;;4823688;29;20050;-64
2022/10/29 14:41:09;;;;;;;15.40;8.52;;;;;;;;;;4825702;29;20038;-65
2022/10/29 14:43:36;;;;;;;16.55;7.78;;;;;;;;;;4824927;29;20106;-64
2022/10/29 14:46:10;;;;;;;15.40;7.50;;;;;;;;;;4824786;29;20420;-64
2022/10/29 14:48:37;;;;;;;18.02;7.88;;;;;;;;;;4824648;29;20054;-64
2022/10/29 14:51:04;;;;;;;15.10;6.72;;;;;;;;;;4824716;29;20573;-64
2022/10/29 14:53:34;;;;;;;11.57;6.35;;;;;;;;;;4822669;29;20508;-64